sensor_id;sensor_type;location;lat;lon;timestamp;P1;durP1;ratioP1;P2;durP2;ratioP2
33022;SDS011;19390;51.460;5.710;2022-07-23T00:00:15;8.43;;;5.88;;
33022;SDS011;19390;51.460;5.710;2022-07-23T00:02:41;9.60;;;5.75;;
33022;SDS011;19390;51.460;5.710;2022-07-23T00:05:07;10.57;;;5.78;;
33022;SDS011;19390;51.460;5.710;2022-07-23T00:07:34;7.82;;;5.78;;
33022;SDS011;19390;51.460;5.710;2022-07-23T00:09:59;9.55;;;6.30;;
33022;SDS011;19390;51.460;5.710;2022-07-23T00:12:25;9.00;;;6.10;;
33022;SDS011;19390;51.460;5.710;2022-07-23T00:14:51;9.80;;;6.40;;
33022;SDS011;19390;51.460;5.710;2022-07-23T00:17:16;11.73;;;7.28;;
33022;SDS011;19390;51.460;5.710;2022-07-23T00:19:42;9.48;;;6.60;;
33022;SDS011;19390;51.460;5.710;2022-07-23T00:22:08;7.25;;;6.50;;
33022;SDS011;19390;51.460;5.710;2022-07-23T00:24:33;9.90;;;6.60;;
33022;SDS011;19390;51.460;5.710;2022-07-23T00:26:59;7.78;;;6.10;;
33022;SDS011;19390;51.460;5.710;2022-07-23T00:29:24;6.93;;;5.88;;
33022;SDS011;19390;51.460;5.710;2022-07-23T00:31:50;11.70;;;6.47;;
33022;SDS011;19390;51.460;5.710;2022-07-23T00:34:15;11.07;;;6.50;;
33022;SDS011;19390;51.460;5.710;2022-07-23T00:36:41;11.98;;;7.43;;
33022;SDS011;19390;51.460;5.710;2022-07-23T00:39:07;10.27;;;7.38;;
33022;SDS011;19390;51.460;5.710;2022-07-23T00:41:32;7.75;;;6.50;;
33022;SDS011;19390;51.460;5.710;2022-07-23T00:44:18;11.30;;;7.18;;
33022;SDS011;19390;51.460;5.710;2022-07-23T00:46:57;9.43;;;6.60;;
33022;SDS011;19390;51.460;5.710;2022-07-23T00:49:24;8.95;;;7.32;;
33022;SDS011;19390;51.460;5.710;2022-07-23T00:51:52;9.50;;;7.15;;
33022;SDS011;19390;51.460;5.710;2022-07-23T00:54:19;8.85;;;7.13;;
33022;SDS011;19390;51.460;5.710;2022-07-23T00:56:48;11.55;;;7.88;;
33022;SDS011;19390;51.460;5.710;2022-07-23T00:59:14;10.32;;;7.55;;
33022;SDS011;19390;51.460;5.710;2022-07-23T01:01:40;9.55;;;7.97;;
33022;SDS011;19390;51.460;5.710;2022-07-23T01:04:06;11.07;;;8.23;;
33022;SDS011;19390;51.460;5.710;2022-07-23T01:06:36;9.00;;;6.93;;
33022;SDS011;19390;51.460;5.710;2022-07-23T01:09:03;12.10;;;7.30;;
33022;SDS011;19390;51.460;5.710;2022-07-23T01:11:31;9.70;;;8.00;;
33022;SDS011;19390;51.460;5.710;2022-07-23T01:14:07;12.88;;;7.95;;
33022;SDS011;19390;51.460;5.710;2022-07-23T01:16:34;9.73;;;8.23;;
33022;SDS011;19390;51.460;5.710;2022-07-23T01:18:59;10.18;;;8.05;;
33022;SDS011;19390;51.460;5.710;2022-07-23T01:21:25;9.90;;;7.57;;
33022;SDS011;19390;51.460;5.710;2022-07-23T01:23:50;11.02;;;7.78;;
33022;SDS011;19390;51.460;5.710;2022-07-23T01:26:16;9.07;;;7.38;;
33022;SDS011;19390;51.460;5.710;2022-07-23T01:28:42;10.38;;;8.23;;
33022;SDS011;19390;51.460;5.710;2022-07-23T01:31:08;10.27;;;8.38;;
33022;SDS011;19390;51.460;5.710;2022-07-23T01:33:33;13.00;;;7.97;;
33022;SDS011;19390;51.460;5.710;2022-07-23T01:35:59;16.17;;;9.45;;
33022;SDS011;19390;51.460;5.710;2022-07-23T01:38:24;9.77;;;7.97;;
33022;SDS011;19390;51.460;5.710;2022-07-23T01:40:50;11.13;;;8.50;;
33022;SDS011;19390;51.460;5.710;2022-07-23T01:43:16;13.27;;;9.40;;
33022;SDS011;19390;51.460;5.710;2022-07-23T01:45:41;12.82;;;9.02;;
33022;SDS011;19390;51.460;5.710;2022-07-23T01:48:09;15.75;;;8.38;;
33022;SDS011;19390;51.460;5.710;2022-07-23T01:50:35;14.70;;;9.50;;
33022;SDS011;19390;51.460;5.710;2022-07-23T01:53:00;11.40;;;8.75;;
33022;SDS011;19390;51.460;5.710;2022-07-23T01:55:26;13.80;;;9.20;;
33022;SDS011;19390;51.460;5.710;2022-07-23T01:57:51;10.13;;;8.50;;
33022;SDS011;19390;51.460;5.710;2022-07-23T02:00:17;10.30;;;9.30;;
33022;SDS011;19390;51.460;5.710;2022-07-23T02:02:43;9.13;;;8.23;;
33022;SDS011;19390;51.460;5.710;2022-07-23T02:05:08;13.15;;;9.38;;
33022;SDS011;19390;51.460;5.710;2022-07-23T02:07:34;12.60;;;10.77;;
33022;SDS011;19390;51.460;5.710;2022-07-23T02:10:00;12.38;;;10.18;;
33022;SDS011;19390;51.460;5.710;2022-07-23T02:12:25;9.93;;;8.70;;
33022;SDS011;19390;51.460;5.710;2022-07-23T02:14:51;10.43;;;9.30;;
33022;SDS011;19390;51.460;5.710;2022-07-23T02:17:16;12.10;;;8.80;;
33022;SDS011;19390;51.460;5.710;2022-07-23T02:19:42;12.43;;;9.13;;
33022;SDS011;19390;51.460;5.710;2022-07-23T02:22:07;11.32;;;8.63;;
33022;SDS011;19390;51.460;5.710;2022-07-23T02:24:33;11.13;;;9.40;;
33022;SDS011;19390;51.460;5.710;2022-07-23T02:26:59;14.15;;;9.73;;
33022;SDS011;19390;51.460;5.710;2022-07-23T02:29:24;13.77;;;9.57;;
33022;SDS011;19390;51.460;5.710;2022-07-23T02:31:50;11.70;;;9.85;;
33022;SDS011;19390;51.460;5.710;2022-07-23T02:34:16;10.35;;;9.20;;
33022;SDS011;19390;51.460;5.710;2022-07-23T02:36:41;14.25;;;10.10;;
33022;SDS011;19390;51.460;5.710;2022-07-23T02:39:07;13.52;;;8.50;;
33022;SDS011;19390;51.460;5.710;2022-07-23T02:41:32;11.10;;;10.07;;
33022;SDS011;19390;51.460;5.710;2022-07-23T02:43:58;11.88;;;10.43;;
33022;SDS011;19390;51.460;5.710;2022-07-23T02:46:24;12.48;;;9.73;;
33022;SDS011;19390;51.460;5.710;2022-07-23T02:48:49;11.52;;;9.00;;
33022;SDS011;19390;51.460;5.710;2022-07-23T02:51:15;13.05;;;9.80;;
33022;SDS011;19390;51.460;5.710;2022-07-23T02:53:41;10.32;;;9.05;;
33022;SDS011;19390;51.460;5.710;2022-07-23T02:56:06;10.73;;;9.63;;
33022;SDS011;19390;51.460;5.710;2022-07-23T02:58:32;14.82;;;9.88;;
33022;SDS011;19390;51.460;5.710;2022-07-23T03:00:58;10.43;;;8.73;;
33022;SDS011;19390;51.460;5.710;2022-07-23T03:03:23;10.98;;;9.18;;
33022;SDS011;19390;51.460;5.710;2022-07-23T03:05:49;10.60;;;9.27;;
33022;SDS011;19390;51.460;5.710;2022-07-23T03:08:15;11.30;;;10.20;;
33022;SDS011;19390;51.460;5.710;2022-07-23T03:10:40;12.77;;;9.65;;
33022;SDS011;19390;51.460;5.710;2022-07-23T03:13:06;12.40;;;9.93;;
33022;SDS011;19390;51.460;5.710;2022-07-23T03:15:31;12.25;;;10.20;;
33022;SDS011;19390;51.460;5.710;2022-07-23T03:17:57;11.75;;;10.52;;
33022;SDS011;19390;51.460;5.710;2022-07-23T03:20:23;11.88;;;10.38;;
33022;SDS011;19390;51.460;5.710;2022-07-23T03:22:48;13.15;;;11.02;;
33022;SDS011;19390;51.460;5.710;2022-07-23T03:25:14;11.00;;;9.57;;
33022;SDS011;19390;51.460;5.710;2022-07-23T03:27:39;12.45;;;10.18;;
33022;SDS011;19390;51.460;5.710;2022-07-23T03:30:05;13.90;;;10.85;;
33022;SDS011;19390;51.460;5.710;2022-07-23T03:32:32;15.40;;;10.88;;
33022;SDS011;19390;51.460;5.710;2022-07-23T03:34:57;16.02;;;12.32;;
33022;SDS011;19390;51.460;5.710;2022-07-23T03:37:24;15.65;;;12.02;;
33022;SDS011;19390;51.460;5.710;2022-07-23T03:39:49;16.38;;;12.43;;
33022;SDS011;19390;51.460;5.710;2022-07-23T03:42:15;16.65;;;13.02;;
33022;SDS011;19390;51.460;5.710;2022-07-23T03:44:41;13.73;;;12.25;;
33022;SDS011;19390;51.460;5.710;2022-07-23T03:47:06;15.60;;;12.60;;
33022;SDS011;19390;51.460;5.710;2022-07-23T03:49:32;14.43;;;12.68;;
33022;SDS011;19390;51.460;5.710;2022-07-23T03:51:58;14.27;;;12.73;;
33022;SDS011;19390;51.460;5.710;2022-07-23T03:54:23;14.40;;;12.43;;
33022;SDS011;19390;51.460;5.710;2022-07-23T03:56:49;11.90;;;10.70;;
33022;SDS011;19390;51.460;5.710;2022-07-23T03:59:15;14.60;;;12.38;;
33022;SDS011;19390;51.460;5.710;2022-07-23T04:01:42;13.40;;;11.98;;
33022;SDS011;19390;51.460;5.710;2022-07-23T04:04:07;14.63;;;12.35;;
33022;SDS011;19390;51.460;5.710;2022-07-23T04:06:33;13.02;;;11.50;;
33022;SDS011;19390;51.460;5.710;2022-07-23T04:09:00;16.63;;;12.98;;
33022;SDS011;19390;51.460;5.710;2022-07-23T04:11:25;16.10;;;13.07;;
33022;SDS011;19390;51.460;5.710;2022-07-23T04:13:51;16.30;;;12.98;;
33022;SDS011;19390;51.460;5.710;2022-07-23T04:16:17;13.13;;;11.82;;
33022;SDS011;19390;51.460;5.710;2022-07-23T04:18:42;12.65;;;10.85;;
33022;SDS011;19390;51.460;5.710;2022-07-23T04:21:08;14.93;;;11.57;;
33022;SDS011;19390;51.460;5.710;2022-07-23T04:23:34;16.15;;;13.30;;
33022;SDS011;19390;51.460;5.710;2022-07-23T04:25:59;15.40;;;12.80;;
33022;SDS011;19390;51.460;5.710;2022-07-23T04:28:25;15.27;;;13.43;;
33022;SDS011;19390;51.460;5.710;2022-07-23T04:30:50;17.42;;;13.85;;
33022;SDS011;19390;51.460;5.710;2022-07-23T04:33:16;14.48;;;11.88;;
33022;SDS011;19390;51.460;5.710;2022-07-23T04:35:42;17.40;;;13.40;;
33022;SDS011;19390;51.460;5.710;2022-07-23T04:38:07;14.13;;;12.07;;
33022;SDS011;19390;51.460;5.710;2022-07-23T04:40:33;14.63;;;12.77;;
33022;SDS011;19390;51.460;5.710;2022-07-23T04:42:58;13.50;;;12.10;;
33022;SDS011;19390;51.460;5.710;2022-07-23T04:45:24;16.40;;;14.10;;
33022;SDS011;19390;51.460;5.710;2022-07-23T04:47:50;13.32;;;11.98;;
33022;SDS011;19390;51.460;5.710;2022-07-23T04:50:15;14.35;;;12.35;;
33022;SDS011;19390;51.460;5.710;2022-07-23T04:52:46;14.85;;;13.18;;
33022;SDS011;19390;51.460;5.710;2022-07-23T04:55:14;19.80;;;12.15;;
33022;SDS011;19390;51.460;5.710;2022-07-23T04:57:40;15.55;;;13.05;;
33022;SDS011;19390;51.460;5.710;2022-07-23T05:00:06;14.10;;;12.55;;
33022;SDS011;19390;51.460;5.710;2022-07-23T05:02:32;15.10;;;12.57;;
33022;SDS011;19390;51.460;5.710;2022-07-23T05:04:58;15.02;;;12.00;;
33022;SDS011;19390;51.460;5.710;2022-07-23T05:07:23;13.85;;;12.25;;
33022;SDS011;19390;51.460;5.710;2022-07-23T05:09:49;16.77;;;13.18;;
33022;SDS011;19390;51.460;5.710;2022-07-23T05:12:15;10.95;;;9.30;;
33022;SDS011;19390;51.460;5.710;2022-07-23T05:14:40;12.65;;;9.55;;
33022;SDS011;19390;51.460;5.710;2022-07-23T05:17:06;10.45;;;9.18;;
33022;SDS011;19390;51.460;5.710;2022-07-23T05:19:33;9.65;;;7.78;;
33022;SDS011;19390;51.460;5.710;2022-07-23T05:21:59;12.73;;;8.85;;
33022;SDS011;19390;51.460;5.710;2022-07-23T05:24:24;11.10;;;7.70;;
33022;SDS011;19390;51.460;5.710;2022-07-23T05:26:50;10.02;;;7.72;;
33022;SDS011;19390;51.460;5.710;2022-07-23T05:29:16;10.32;;;7.95;;
33022;SDS011;19390;51.460;5.710;2022-07-23T05:31:41;9.93;;;8.05;;
33022;SDS011;19390;51.460;5.710;2022-07-23T05:34:07;11.63;;;7.70;;
33022;SDS011;19390;51.460;5.710;2022-07-23T05:36:33;10.25;;;7.07;;
33022;SDS011;19390;51.460;5.710;2022-07-23T05:38:58;9.35;;;7.03;;
33022;SDS011;19390;51.460;5.710;2022-07-23T05:41:24;8.40;;;6.80;;
33022;SDS011;19390;51.460;5.710;2022-07-23T05:43:49;6.25;;;5.65;;
33022;SDS011;19390;51.460;5.710;2022-07-23T05:46:15;8.40;;;6.00;;
33022;SDS011;19390;51.460;5.710;2022-07-23T05:48:41;8.02;;;5.68;;
33022;SDS011;19390;51.460;5.710;2022-07-23T05:53:50;9.93;;;6.22;;
33022;SDS011;19390;51.460;5.710;2022-07-23T05:56:16;8.48;;;7.03;;
33022;SDS011;19390;51.460;5.710;2022-07-23T05:58:43;8.73;;;7.07;;
33022;SDS011;19390;51.460;5.710;2022-07-23T06:01:08;8.02;;;6.85;;
33022;SDS011;19390;51.460;5.710;2022-07-23T06:03:34;7.07;;;6.35;;
33022;SDS011;19390;51.460;5.710;2022-07-23T06:06:00;8.30;;;6.13;;
33022;SDS011;19390;51.460;5.710;2022-07-23T06:08:25;9.02;;;6.10;;
33022;SDS011;19390;51.460;5.710;2022-07-23T06:10:51;7.35;;;5.78;;
33022;SDS011;19390;51.460;5.710;2022-07-23T06:13:17;9.23;;;5.75;;
33022;SDS011;19390;51.460;5.710;2022-07-23T06:15:43;9.02;;;5.57;;
33022;SDS011;19390;51.460;5.710;2022-07-23T06:18:09;8.85;;;5.32;;
33022;SDS011;19390;51.460;5.710;2022-07-23T06:20:35;5.70;;;4.78;;
33022;SDS011;19390;51.460;5.710;2022-07-23T06:23:00;6.63;;;5.90;;
33022;SDS011;19390;51.460;5.710;2022-07-23T06:25:26;8.07;;;5.60;;
33022;SDS011;19390;51.460;5.710;2022-07-23T06:27:51;8.90;;;4.72;;
33022;SDS011;19390;51.460;5.710;2022-07-23T06:30:17;5.97;;;4.70;;
33022;SDS011;19390;51.460;5.710;2022-07-23T06:32:43;5.93;;;4.55;;
33022;SDS011;19390;51.460;5.710;2022-07-23T06:35:10;4.47;;;4.07;;
33022;SDS011;19390;51.460;5.710;2022-07-23T06:37:35;6.45;;;4.47;;
33022;SDS011;19390;51.460;5.710;2022-07-23T06:40:01;7.43;;;5.05;;
33022;SDS011;19390;51.460;5.710;2022-07-23T06:42:27;7.93;;;3.92;;
33022;SDS011;19390;51.460;5.710;2022-07-23T06:44:53;5.00;;;3.70;;
33022;SDS011;19390;51.460;5.710;2022-07-23T06:47:18;6.97;;;4.78;;
33022;SDS011;19390;51.460;5.710;2022-07-23T06:49:44;5.55;;;3.72;;
33022;SDS011;19390;51.460;5.710;2022-07-23T06:52:10;7.47;;;3.30;;
33022;SDS011;19390;51.460;5.710;2022-07-23T06:54:35;4.22;;;3.42;;
33022;SDS011;19390;51.460;5.710;2022-07-23T06:57:01;5.65;;;3.67;;
33022;SDS011;19390;51.460;5.710;2022-07-23T06:59:26;5.90;;;3.17;;
33022;SDS011;19390;51.460;5.710;2022-07-23T07:01:52;6.65;;;3.80;;
33022;SDS011;19390;51.460;5.710;2022-07-23T07:04:18;4.65;;;3.33;;
33022;SDS011;19390;51.460;5.710;2022-07-23T07:06:43;5.97;;;3.80;;
33022;SDS011;19390;51.460;5.710;2022-07-23T07:09:09;4.38;;;3.10;;
33022;SDS011;19390;51.460;5.710;2022-07-23T07:11:34;3.45;;;2.70;;
33022;SDS011;19390;51.460;5.710;2022-07-23T07:14:00;4.10;;;3.05;;
33022;SDS011;19390;51.460;5.710;2022-07-23T07:16:26;7.05;;;3.35;;
33022;SDS011;19390;51.460;5.710;2022-07-23T07:18:51;4.03;;;3.65;;
33022;SDS011;19390;51.460;5.710;2022-07-23T07:21:17;5.72;;;3.03;;
33022;SDS011;19390;51.460;5.710;2022-07-23T07:23:43;3.55;;;2.70;;
33022;SDS011;19390;51.460;5.710;2022-07-23T07:26:08;4.65;;;2.88;;
33022;SDS011;19390;51.460;5.710;2022-07-23T07:28:34;3.65;;;3.03;;
33022;SDS011;19390;51.460;5.710;2022-07-23T07:31:00;6.30;;;2.85;;
33022;SDS011;19390;51.460;5.710;2022-07-23T07:33:25;2.10;;;1.90;;
33022;SDS011;19390;51.460;5.710;2022-07-23T07:35:51;4.53;;;2.78;;
33022;SDS011;19390;51.460;5.710;2022-07-23T07:38:16;3.42;;;2.30;;
33022;SDS011;19390;51.460;5.710;2022-07-23T07:40:42;4.43;;;2.45;;
33022;SDS011;19390;51.460;5.710;2022-07-23T07:43:08;3.83;;;2.50;;
33022;SDS011;19390;51.460;5.710;2022-07-23T07:45:33;4.20;;;2.75;;
33022;SDS011;19390;51.460;5.710;2022-07-23T07:47:59;5.00;;;2.28;;
33022;SDS011;19390;51.460;5.710;2022-07-23T07:50:24;3.55;;;2.40;;
33022;SDS011;19390;51.460;5.710;2022-07-23T07:52:50;3.70;;;3.10;;
33022;SDS011;19390;51.460;5.710;2022-07-23T07:55:16;5.75;;;2.90;;
33022;SDS011;19390;51.460;5.710;2022-07-23T07:57:41;6.90;;;3.17;;
33022;SDS011;19390;51.460;5.710;2022-07-23T08:00:08;3.58;;;2.90;;
33022;SDS011;19390;51.460;5.710;2022-07-23T08:02:45;3.22;;;2.50;;
33022;SDS011;19390;51.460;5.710;2022-07-23T08:05:11;3.17;;;2.88;;
33022;SDS011;19390;51.460;5.710;2022-07-23T08:07:36;4.72;;;3.03;;
33022;SDS011;19390;51.460;5.710;2022-07-23T08:10:04;3.53;;;3.22;;
33022;SDS011;19390;51.460;5.710;2022-07-23T08:12:37;6.07;;;2.88;;
33022;SDS011;19390;51.460;5.710;2022-07-23T08:15:05;4.78;;;2.63;;
33022;SDS011;19390;51.460;5.710;2022-07-23T08:17:31;4.85;;;2.58;;
33022;SDS011;19390;51.460;5.710;2022-07-23T08:19:56;5.03;;;2.78;;
33022;SDS011;19390;51.460;5.710;2022-07-23T08:22:22;5.70;;;3.33;;
33022;SDS011;19390;51.460;5.710;2022-07-23T08:24:47;4.03;;;3.30;;
33022;SDS011;19390;51.460;5.710;2022-07-23T08:27:13;4.57;;;2.20;;
33022;SDS011;19390;51.460;5.710;2022-07-23T08:29:39;2.88;;;2.65;;
33022;SDS011;19390;51.460;5.710;2022-07-23T08:32:04;5.47;;;2.63;;
33022;SDS011;19390;51.460;5.710;2022-07-23T08:34:30;3.35;;;2.80;;
33022;SDS011;19390;51.460;5.710;2022-07-23T08:36:55;5.75;;;2.80;;
33022;SDS011;19390;51.460;5.710;2022-07-23T08:39:21;4.00;;;2.83;;
33022;SDS011;19390;51.460;5.710;2022-07-23T08:41:47;7.35;;;3.10;;
33022;SDS011;19390;51.460;5.710;2022-07-23T08:44:13;5.05;;;2.85;;
33022;SDS011;19390;51.460;5.710;2022-07-23T08:46:41;3.65;;;2.15;;
33022;SDS011;19390;51.460;5.710;2022-07-23T08:49:08;7.18;;;3.13;;
33022;SDS011;19390;51.460;5.710;2022-07-23T08:51:33;3.92;;;2.80;;
33022;SDS011;19390;51.460;5.710;2022-07-23T08:53:59;7.35;;;3.50;;
33022;SDS011;19390;51.460;5.710;2022-07-23T08:56:26;4.13;;;3.22;;
33022;SDS011;19390;51.460;5.710;2022-07-23T08:58:53;3.80;;;2.78;;
33022;SDS011;19390;51.460;5.710;2022-07-23T09:01:19;3.38;;;2.00;;
33022;SDS011;19390;51.460;5.710;2022-07-23T09:03:45;3.30;;;2.72;;
33022;SDS011;19390;51.460;5.710;2022-07-23T09:06:11;5.30;;;2.72;;
33022;SDS011;19390;51.460;5.710;2022-07-23T09:08:37;4.65;;;3.22;;
33022;SDS011;19390;51.460;5.710;2022-07-23T09:11:04;2.97;;;2.45;;
33022;SDS011;19390;51.460;5.710;2022-07-23T09:16:18;3.72;;;2.53;;
33022;SDS011;19390;51.460;5.710;2022-07-23T09:24:07;2.70;;;1.48;;
33022;SDS011;19390;51.460;5.710;2022-07-23T09:26:38;2.72;;;1.73;;
33022;SDS011;19390;51.460;5.710;2022-07-23T09:29:06;5.38;;;2.80;;
33022;SDS011;19390;51.460;5.710;2022-07-23T09:31:42;2.38;;;1.50;;
33022;SDS011;19390;51.460;5.710;2022-07-23T09:34:14;2.58;;;1.52;;
33022;SDS011;19390;51.460;5.710;2022-07-23T09:36:43;3.10;;;2.05;;
33022;SDS011;19390;51.460;5.710;2022-07-23T09:39:10;2.30;;;1.90;;
33022;SDS011;19390;51.460;5.710;2022-07-23T09:41:42;4.95;;;1.83;;
33022;SDS011;19390;51.460;5.710;2022-07-23T09:44:13;1.73;;;1.55;;
33022;SDS011;19390;51.460;5.710;2022-07-23T09:46:43;3.15;;;1.92;;
33022;SDS011;19390;51.460;5.710;2022-07-23T09:49:20;3.85;;;1.90;;
33022;SDS011;19390;51.460;5.710;2022-07-23T09:51:54;4.63;;;2.10;;
33022;SDS011;19390;51.460;5.710;2022-07-23T09:56:47;4.38;;;1.90;;
33022;SDS011;19390;51.460;5.710;2022-07-23T09:59:14;3.85;;;1.80;;
33022;SDS011;19390;51.460;5.710;2022-07-23T10:01:42;1.50;;;1.30;;
33022;SDS011;19390;51.460;5.710;2022-07-23T10:04:10;4.28;;;1.83;;
33022;SDS011;19390;51.460;5.710;2022-07-23T10:06:37;2.88;;;1.73;;
33022;SDS011;19390;51.460;5.710;2022-07-23T10:09:04;3.83;;;2.60;;
33022;SDS011;19390;51.460;5.710;2022-07-23T10:11:33;6.35;;;2.95;;
33022;SDS011;19390;51.460;5.710;2022-07-23T10:13:59;4.25;;;2.38;;
33022;SDS011;19390;51.460;5.710;2022-07-23T10:16:28;3.88;;;2.55;;
33022;SDS011;19390;51.460;5.710;2022-07-23T10:18:54;3.30;;;2.35;;
33022;SDS011;19390;51.460;5.710;2022-07-23T10:21:39;4.13;;;2.15;;
33022;SDS011;19390;51.460;5.710;2022-07-23T10:26:47;2.72;;;1.70;;
33022;SDS011;19390;51.460;5.710;2022-07-23T10:29:36;3.17;;;2.10;;
33022;SDS011;19390;51.460;5.710;2022-07-23T10:32:20;2.97;;;2.08;;
33022;SDS011;19390;51.460;5.710;2022-07-23T10:35:31;3.58;;;2.45;;
33022;SDS011;19390;51.460;5.710;2022-07-23T10:38:32;5.07;;;1.73;;
33022;SDS011;19390;51.460;5.710;2022-07-23T10:41:32;3.17;;;1.70;;
33022;SDS011;19390;51.460;5.710;2022-07-23T10:44:06;2.22;;;1.60;;
33022;SDS011;19390;51.460;5.710;2022-07-23T10:46:32;3.00;;;1.45;;
33022;SDS011;19390;51.460;5.710;2022-07-23T10:49:25;2.92;;;2.22;;
33022;SDS011;19390;51.460;5.710;2022-07-23T10:54:56;1.83;;;1.30;;
33022;SDS011;19390;51.460;5.710;2022-07-23T10:57:48;2.53;;;1.20;;
33022;SDS011;19390;51.460;5.710;2022-07-23T11:00:16;1.50;;;0.98;;
33022;SDS011;19390;51.460;5.710;2022-07-23T11:02:47;1.40;;;1.00;;
33022;SDS011;19390;51.460;5.710;2022-07-23T11:05:18;1.58;;;0.88;;
33022;SDS011;19390;51.460;5.710;2022-07-23T11:10:39;1.55;;;0.70;;
33022;SDS011;19390;51.460;5.710;2022-07-23T11:34:32;3.05;;;1.10;;
33022;SDS011;19390;51.460;5.710;2022-07-23T11:36:58;2.42;;;1.00;;
33022;SDS011;19390;51.460;5.710;2022-07-23T11:39:25;0.70;;;0.70;;
33022;SDS011;19390;51.460;5.710;2022-07-23T11:41:52;1.75;;;0.95;;
33022;SDS011;19390;51.460;5.710;2022-07-23T11:44:29;1.58;;;1.20;;
33022;SDS011;19390;51.460;5.710;2022-07-23T11:47:05;3.38;;;0.95;;
33022;SDS011;19390;51.460;5.710;2022-07-23T11:49:32;2.40;;;1.40;;
33022;SDS011;19390;51.460;5.710;2022-07-23T11:52:02;1.40;;;0.65;;
33022;SDS011;19390;51.460;5.710;2022-07-23T11:54:36;1.20;;;0.60;;
33022;SDS011;19390;51.460;5.710;2022-07-23T11:57:11;1.70;;;1.60;;
33022;SDS011;19390;51.460;5.710;2022-07-23T11:59:37;1.17;;;0.90;;
33022;SDS011;19390;51.460;5.710;2022-07-23T12:02:04;2.05;;;1.08;;
33022;SDS011;19390;51.460;5.710;2022-07-23T12:04:52;3.33;;;1.10;;
33022;SDS011;19390;51.460;5.710;2022-07-23T12:09:54;1.35;;;1.17;;
33022;SDS011;19390;51.460;5.710;2022-07-23T12:12:20;1.73;;;1.58;;
33022;SDS011;19390;51.460;5.710;2022-07-23T12:14:57;3.95;;;1.80;;
33022;SDS011;19390;51.460;5.710;2022-07-23T12:17:28;2.38;;;1.88;;
33022;SDS011;19390;51.460;5.710;2022-07-23T12:19:57;3.38;;;1.50;;
33022;SDS011;19390;51.460;5.710;2022-07-23T12:22:23;2.08;;;1.17;;
33022;SDS011;19390;51.460;5.710;2022-07-23T12:24:55;2.58;;;1.35;;
33022;SDS011;19390;51.460;5.710;2022-07-23T12:27:22;1.45;;;1.20;;
33022;SDS011;19390;51.460;5.710;2022-07-23T12:29:48;2.25;;;1.38;;
33022;SDS011;19390;51.460;5.710;2022-07-23T12:32:18;1.20;;;1.10;;
33022;SDS011;19390;51.460;5.710;2022-07-23T12:34:47;1.58;;;1.13;;
33022;SDS011;19390;51.460;5.710;2022-07-23T12:37:28;2.33;;;1.23;;
33022;SDS011;19390;51.460;5.710;2022-07-23T12:42:48;1.30;;;1.15;;
33022;SDS011;19390;51.460;5.710;2022-07-23T12:45:15;3.70;;;1.40;;
33022;SDS011;19390;51.460;5.710;2022-07-23T12:47:51;1.50;;;1.40;;
33022;SDS011;19390;51.460;5.710;2022-07-23T12:53:04;1.60;;;0.98;;
33022;SDS011;19390;51.460;5.710;2022-07-23T12:55:35;1.77;;;1.20;;
33022;SDS011;19390;51.460;5.710;2022-07-23T12:58:05;3.00;;;1.30;;
33022;SDS011;19390;51.460;5.710;2022-07-23T13:00:50;1.63;;;1.52;;
33022;SDS011;19390;51.460;5.710;2022-07-23T13:06:03;2.72;;;1.50;;
33022;SDS011;19390;51.460;5.710;2022-07-23T13:08:30;2.10;;;1.10;;
33022;SDS011;19390;51.460;5.710;2022-07-23T13:10:57;2.63;;;1.40;;
33022;SDS011;19390;51.460;5.710;2022-07-23T13:13:23;2.95;;;1.77;;
33022;SDS011;19390;51.460;5.710;2022-07-23T13:15:50;2.13;;;1.38;;
33022;SDS011;19390;51.460;5.710;2022-07-23T13:18:17;3.35;;;1.70;;
33022;SDS011;19390;51.460;5.710;2022-07-23T13:20:43;2.40;;;1.38;;
33022;SDS011;19390;51.460;5.710;2022-07-23T13:23:10;1.83;;;1.50;;
33022;SDS011;19390;51.460;5.710;2022-07-23T13:25:35;2.08;;;1.58;;
33022;SDS011;19390;51.460;5.710;2022-07-23T13:28:01;1.48;;;1.10;;
33022;SDS011;19390;51.460;5.710;2022-07-23T13:30:27;1.55;;;1.30;;
33022;SDS011;19390;51.460;5.710;2022-07-23T13:32:53;2.22;;;1.75;;
33022;SDS011;19390;51.460;5.710;2022-07-23T13:35:18;1.85;;;1.50;;
33022;SDS011;19390;51.460;5.710;2022-07-23T13:37:44;3.60;;;1.95;;
33022;SDS011;19390;51.460;5.710;2022-07-23T13:40:09;3.10;;;1.40;;
33022;SDS011;19390;51.460;5.710;2022-07-23T13:42:35;3.00;;;1.90;;
33022;SDS011;19390;51.460;5.710;2022-07-23T13:45:03;3.20;;;2.10;;
33022;SDS011;19390;51.460;5.710;2022-07-23T13:47:30;3.47;;;1.88;;
33022;SDS011;19390;51.460;5.710;2022-07-23T13:49:55;2.15;;;1.63;;
33022;SDS011;19390;51.460;5.710;2022-07-23T13:52:21;4.40;;;1.80;;
33022;SDS011;19390;51.460;5.710;2022-07-23T13:54:47;2.05;;;1.60;;
33022;SDS011;19390;51.460;5.710;2022-07-23T13:57:12;2.00;;;1.65;;
33022;SDS011;19390;51.460;5.710;2022-07-23T13:59:38;3.35;;;1.65;;
33022;SDS011;19390;51.460;5.710;2022-07-23T14:02:04;2.97;;;1.90;;
33022;SDS011;19390;51.460;5.710;2022-07-23T14:04:30;2.22;;;2.00;;
33022;SDS011;19390;51.460;5.710;2022-07-23T14:06:56;2.58;;;1.80;;
33022;SDS011;19390;51.460;5.710;2022-07-23T14:09:22;3.95;;;1.83;;
33022;SDS011;19390;51.460;5.710;2022-07-23T14:11:48;2.53;;;2.10;;
33022;SDS011;19390;51.460;5.710;2022-07-23T14:14:14;4.22;;;2.40;;
33022;SDS011;19390;51.460;5.710;2022-07-23T14:16:40;4.22;;;2.10;;
33022;SDS011;19390;51.460;5.710;2022-07-23T14:19:06;3.83;;;2.10;;
33022;SDS011;19390;51.460;5.710;2022-07-23T14:21:31;2.80;;;2.00;;
33022;SDS011;19390;51.460;5.710;2022-07-23T14:23:57;2.63;;;2.20;;
33022;SDS011;19390;51.460;5.710;2022-07-23T14:26:23;5.22;;;2.47;;
33022;SDS011;19390;51.460;5.710;2022-07-23T14:28:48;3.58;;;2.08;;
33022;SDS011;19390;51.460;5.710;2022-07-23T14:31:15;2.88;;;2.17;;
33022;SDS011;19390;51.460;5.710;2022-07-23T14:33:41;2.42;;;2.03;;
33022;SDS011;19390;51.460;5.710;2022-07-23T14:36:06;4.85;;;2.50;;
33022;SDS011;19390;51.460;5.710;2022-07-23T14:38:32;2.15;;;1.88;;
33022;SDS011;19390;51.460;5.710;2022-07-23T14:40:57;3.08;;;2.05;;
33022;SDS011;19390;51.460;5.710;2022-07-23T14:43:23;2.53;;;2.30;;
33022;SDS011;19390;51.460;5.710;2022-07-23T14:45:49;3.05;;;2.10;;
33022;SDS011;19390;51.460;5.710;2022-07-23T14:48:14;2.83;;;2.35;;
33022;SDS011;19390;51.460;5.710;2022-07-23T14:50:40;2.65;;;2.00;;
33022;SDS011;19390;51.460;5.710;2022-07-23T14:53:06;4.80;;;2.10;;
33022;SDS011;19390;51.460;5.710;2022-07-23T14:55:32;3.13;;;2.60;;
33022;SDS011;19390;51.460;5.710;2022-07-23T14:57:58;17.55;;;13.60;;
33022;SDS011;19390;51.460;5.710;2022-07-23T15:00:24;2.50;;;2.05;;
33022;SDS011;19390;51.460;5.710;2022-07-23T15:02:52;16.20;;;14.60;;
33022;SDS011;19390;51.460;5.710;2022-07-23T15:05:18;3.67;;;3.38;;
33022;SDS011;19390;51.460;5.710;2022-07-23T15:07:44;6.68;;;5.38;;
33022;SDS011;19390;51.460;5.710;2022-07-23T15:10:10;3.83;;;3.33;;
33022;SDS011;19390;51.460;5.710;2022-07-23T15:12:36;2.47;;;1.95;;
33022;SDS011;19390;51.460;5.710;2022-07-23T15:15:02;2.47;;;2.10;;
33022;SDS011;19390;51.460;5.710;2022-07-23T15:17:28;4.60;;;1.92;;
33022;SDS011;19390;51.460;5.710;2022-07-23T15:19:53;2.17;;;2.08;;
33022;SDS011;19390;51.460;5.710;2022-07-23T15:22:19;4.47;;;2.50;;
33022;SDS011;19390;51.460;5.710;2022-07-23T15:24:45;3.53;;;2.30;;
33022;SDS011;19390;51.460;5.710;2022-07-23T15:27:11;2.67;;;2.00;;
33022;SDS011;19390;51.460;5.710;2022-07-23T15:29:36;3.40;;;2.10;;
33022;SDS011;19390;51.460;5.710;2022-07-23T15:32:02;20.50;;;16.33;;
33022;SDS011;19390;51.460;5.710;2022-07-23T15:34:28;55.30;;;48.15;;